createdAt,value
2017-09-19T00:00:24.863Z,59.80
2017-09-19T00:02:54.577Z,59.70
2017-09-19T00:05:23.521Z,59.60
2017-09-19T00:20:48.159Z,59.40
2017-09-19T00:23:16.490Z,59.80
2017-09-19T00:25:44.017Z,59.90
2017-09-19T00:28:12.286Z,59.70
2017-09-19T00:30:39.818Z,59.40
2017-09-19T00:33:07.375Z,59.50
2017-09-19T00:35:35.623Z,59.50
2017-09-19T00:38:04.985Z,59.50
2017-09-19T00:40:34.534Z,59.30
2017-09-19T00:43:03.264Z,59.30
2017-09-19T00:45:30.788Z,59.40
2017-09-19T00:48:00.754Z,59.10
2017-09-19T00:50:29.526Z,59.10
2017-09-19T00:52:59.130Z,59.00
2017-09-19T00:55:29.259Z,58.80
2017-09-19T00:57:57.878Z,58.10
2017-09-19T01:00:25.430Z,57.70
2017-09-19T01:02:55.054Z,57.40
2017-09-19T01:05:23.766Z,57.40
2017-09-19T01:07:54.314Z,57.20
2017-09-19T01:10:22.338Z,57.20
2017-09-19T01:12:52.568Z,57.20
2017-09-19T01:15:21.672Z,57.00
2017-09-19T01:17:51.484Z,56.70
2017-09-19T01:20:20.432Z,56.40
2017-09-19T01:22:48.742Z,56.30
2017-09-19T01:25:16.834Z,56.50
2017-09-19T01:27:46.832Z,56.20
2017-09-19T01:30:18.180Z,56.10
2017-09-19T01:32:46.439Z,56.10
2017-09-19T01:35:16.084Z,55.70
2017-09-19T01:37:46.105Z,55.50
2017-09-19T01:40:18.678Z,55.60
2017-09-19T01:42:47.851Z,55.60
2017-09-19T01:45:17.948Z,55.60
2017-09-19T01:47:47.550Z,55.50
2017-09-19T01:50:16.622Z,55.40
2017-09-19T01:52:45.586Z,55.30
2017-09-19T01:55:14.822Z,55.40
2017-09-19T01:57:44.180Z,55.20
2017-09-19T02:00:14.419Z,55.10
2017-09-19T02:02:42.727Z,55.30
2017-09-19T02:05:11.559Z,55.30
2017-09-19T02:07:40.773Z,55.40
2017-09-19T02:10:11.172Z,55.70
2017-09-19T02:12:40.143Z,55.60
2017-09-19T02:15:08.478Z,55.40
2017-09-19T02:17:40.064Z,55.60
2017-09-19T02:20:08.388Z,55.60
2017-09-19T02:22:38.081Z,55.70
2017-09-19T02:25:07.157Z,56.20
2017-09-19T02:27:35.966Z,56.00
2017-09-19T02:30:05.310Z,56.00
2017-09-19T02:32:34.810Z,56.00
2017-09-19T02:35:03.161Z,56.20
2017-09-19T02:37:31.753Z,56.20
2017-09-19T02:40:01.822Z,56.00
2017-09-19T02:42:31.205Z,55.20
2017-09-19T02:44:59.933Z,54.80
2017-09-19T02:47:31.610Z,54.10
2017-09-19T02:50:00.449Z,53.90
2017-09-19T02:52:29.428Z,53.50
2017-09-19T02:54:58.346Z,53.30
2017-09-19T02:57:27.744Z,53.30
2017-09-19T02:59:57.203Z,53.20
2017-09-19T03:02:27.144Z,53.20
2017-09-19T03:04:56.474Z,53.50
2017-09-19T03:07:25.934Z,53.50
2017-09-19T03:09:55.411Z,53.40
2017-09-19T03:12:24.216Z,53.40
2017-09-19T03:14:53.191Z,53.70
2017-09-19T03:17:21.042Z,53.80
2017-09-19T03:19:50.218Z,53.90
2017-09-19T03:22:18.510Z,54.20
2017-09-19T03:24:46.940Z,54.40
2017-09-19T03:27:16.813Z,54.60
2017-09-19T03:29:45.063Z,54.40
2017-09-19T03:32:14.165Z,54.70
2017-09-19T03:34:42.761Z,54.70
2017-09-19T03:37:11.400Z,55.00
2017-09-19T03:39:46.860Z,55.30
2017-09-19T03:42:15.719Z,55.30
2017-09-19T03:44:47.459Z,55.40
2017-09-19T03:47:16.884Z,56.00
2017-09-19T03:49:45.768Z,55.40
2017-09-19T03:52:14.717Z,55.40
2017-09-19T03:54:43.946Z,55.30
2017-09-19T03:57:15.129Z,55.50
2017-09-19T03:59:43.588Z,55.60
2017-09-19T04:02:11.607Z,55.50
2017-09-19T04:04:41.735Z,55.80
2017-09-19T04:07:10.703Z,55.90
2017-09-19T04:09:39.609Z,56.10
2017-09-19T04:12:08.970Z,56.20
2017-09-19T04:14:37.243Z,56.50
2017-09-19T04:17:07.944Z,56.40
2017-09-19T04:19:37.822Z,56.40
2017-09-19T04:22:07.710Z,56.70
2017-09-19T04:24:37.132Z,56.70
2017-09-19T04:27:06.665Z,56.70
2017-09-19T04:29:34.841Z,56.80
2017-09-19T04:32:04.137Z,57.10
2017-09-19T04:34:33.375Z,57.10
2017-09-19T04:37:02.678Z,57.10
2017-09-19T04:39:42.088Z,57.20
2017-09-19T04:42:11.244Z,57.40
2017-09-19T04:44:39.760Z,57.80
2017-09-19T04:47:08.002Z,57.80
2017-09-19T04:49:36.867Z,58.00
2017-09-19T04:52:06.544Z,58.20
2017-09-19T04:54:37.928Z,58.50
2017-09-19T04:57:06.853Z,58.20
2017-09-19T04:59:36.166Z,58.20
2017-09-19T05:02:05.054Z,58.30
2017-09-19T05:04:33.335Z,58.60
2017-09-19T05:07:01.456Z,59.10
2017-09-19T05:09:29.734Z,59.50
2017-09-19T05:11:58.776Z,59.70
2017-09-19T05:14:27.651Z,60.50
2017-09-19T05:16:56.075Z,60.70
2017-09-19T05:19:24.049Z,60.90
2017-09-19T05:21:52.805Z,61.40
2017-09-19T05:26:55.044Z,61.70
2017-09-19T05:29:26.503Z,62.10
2017-09-19T05:31:56.181Z,62.10
2017-09-19T05:34:24.555Z,62.50
2017-09-19T05:49:47.875Z,62.60
2017-09-19T05:52:17.414Z,66.50
2017-09-19T05:54:46.227Z,66.90
2017-09-19T05:57:15.647Z,66.70
2017-09-19T05:59:45.733Z,66.70
2017-09-19T06:02:15.713Z,66.70
2017-09-19T06:04:43.710Z,66.80
2017-09-19T06:07:12.745Z,66.40
2017-09-19T06:09:42.474Z,65.80
2017-09-19T06:12:12.065Z,65.80
2017-09-19T06:14:42.177Z,65.70
2017-09-19T06:17:12.028Z,65.70
2017-09-19T06:19:41.418Z,66.00
2017-09-19T06:22:09.783Z,65.50
2017-09-19T06:24:38.618Z,65.70
2017-09-19T06:27:07.883Z,65.70
2017-09-19T06:29:36.266Z,66.00
2017-09-19T06:32:04.451Z,65.90
2017-09-19T06:34:33.844Z,66.20
2017-09-19T06:37:03.564Z,66.30
2017-09-19T06:39:33.241Z,66.10
2017-09-19T06:42:02.731Z,66.00
2017-09-19T06:44:30.944Z,66.00
2017-09-19T06:47:00.334Z,66.00
2017-09-19T06:49:30.911Z,66.10
2017-09-19T06:52:00.299Z,66.10
2017-09-19T06:54:29.621Z,66.00
2017-09-19T06:56:58.686Z,65.40
2017-09-19T06:59:27.759Z,65.40
2017-09-19T07:01:57.904Z,65.90
2017-09-19T07:04:26.826Z,65.80
2017-09-19T07:06:55.023Z,65.90
2017-09-19T07:09:24.102Z,65.80
2017-09-19T07:11:52.244Z,66.80
2017-09-19T07:14:21.007Z,67.00
2017-09-19T07:16:49.843Z,67.20
2017-09-19T07:19:18.704Z,66.70
2017-09-19T07:21:47.199Z,67.20
2017-09-19T07:24:17.085Z,67.30
2017-09-19T07:26:46.200Z,67.20
2017-09-19T07:29:15.326Z,67.40
2017-09-19T07:31:45.789Z,67.70
2017-09-19T07:34:17.272Z,67.60
2017-09-19T07:36:46.380Z,67.50
2017-09-19T07:39:15.744Z,67.70
2017-09-19T07:41:46.081Z,67.90
2017-09-19T07:44:16.525Z,67.90
2017-09-19T07:46:46.450Z,68.00
2017-09-19T07:49:14.621Z,68.00
2017-09-19T07:51:42.497Z,67.80
2017-09-19T07:54:12.054Z,68.00
2017-09-19T07:56:42.122Z,67.80
2017-09-19T07:59:11.396Z,67.80
2017-09-19T08:01:40.208Z,67.90
2017-09-19T08:04:09.372Z,68.00
2017-09-19T08:06:39.306Z,67.00
2017-09-19T08:09:08.373Z,67.00
2017-09-19T08:11:36.678Z,67.50
2017-09-19T08:14:06.247Z,67.50
2017-09-19T08:16:34.561Z,67.80
2017-09-19T08:19:04.053Z,67.90
2017-09-19T08:21:33.165Z,68.10
2017-09-19T08:24:01.601Z,68.00
2017-09-19T08:26:30.797Z,68.10
2017-09-19T08:28:58.601Z,68.30
2017-09-19T08:31:27.403Z,68.50
2017-09-19T08:33:57.049Z,68.60
2017-09-19T08:36:26.086Z,68.80
2017-09-19T08:38:56.569Z,69.00
2017-09-19T08:41:24.833Z,69.00
2017-09-19T08:43:53.547Z,69.20
2017-09-19T08:46:21.547Z,69.20
2017-09-19T08:48:49.708Z,69.00
2017-09-19T08:51:19.138Z,69.40
2017-09-19T08:53:50.860Z,69.10
2017-09-19T08:56:20.263Z,68.20
2017-09-19T08:58:49.476Z,68.20
2017-09-19T09:01:19.654Z,67.70
2017-09-19T09:03:49.807Z,67.60
2017-09-19T09:06:18.219Z,67.10
2017-09-19T09:08:46.667Z,67.40
2017-09-19T09:11:16.793Z,67.50
2017-09-19T09:13:46.080Z,67.00
2017-09-19T09:16:15.542Z,67.50
2017-09-19T09:18:46.356Z,67.60
2017-09-19T09:21:15.422Z,68.00
2017-09-19T09:23:44.454Z,68.00
2017-09-19T09:26:21.048Z,68.30
2017-09-19T09:28:50.789Z,68.60
2017-09-19T09:31:20.022Z,68.30
2017-09-19T09:33:48.414Z,67.90
2017-09-19T09:36:16.852Z,68.00
2017-09-19T09:38:46.536Z,67.80
2017-09-19T09:41:15.562Z,68.00
2017-09-19T09:43:46.398Z,67.80
2017-09-19T09:46:15.738Z,67.80
2017-09-19T09:48:45.213Z,68.10
2017-09-19T09:51:13.076Z,68.80
2017-09-19T09:53:44.267Z,67.90
2017-09-19T09:56:13.713Z,67.90
2017-09-19T09:58:43.348Z,68.60
2017-09-19T10:01:12.651Z,68.60
2017-09-19T10:03:40.380Z,68.90
2017-09-19T10:06:09.076Z,68.00
2017-09-19T10:08:37.351Z,68.40
2017-09-19T10:11:06.162Z,68.70
2017-09-19T10:13:35.344Z,68.30
2017-09-19T10:16:05.568Z,68.40
2017-09-19T10:18:34.291Z,68.30
2017-09-19T10:21:02.971Z,68.10
2017-09-19T10:23:31.976Z,68.40
2017-09-19T10:25:59.856Z,67.90
2017-09-19T10:28:29.554Z,67.90
2017-09-19T10:30:59.184Z,68.20
2017-09-19T10:33:28.489Z,68.20
2017-09-19T10:35:58.032Z,67.30
2017-09-19T10:38:27.788Z,67.80
2017-09-19T10:40:57.114Z,68.30
2017-09-19T10:43:26.065Z,68.00
2017-09-19T10:45:57.083Z,67.50
2017-09-19T10:48:27.737Z,66.90
2017-09-19T10:51:00.570Z,66.90
2017-09-19T10:53:30.800Z,66.40
2017-09-19T10:56:00.953Z,65.80
2017-09-19T10:58:30.753Z,65.80
2017-09-19T11:01:00.908Z,65.90
2017-09-19T11:03:30.482Z,65.70
2017-09-19T11:06:00.365Z,66.90
2017-09-19T11:08:30.609Z,66.80
2017-09-19T11:11:00.027Z,67.00
2017-09-19T11:13:29.912Z,66.60
2017-09-19T11:15:58.221Z,67.50
2017-09-19T11:18:27.813Z,67.70
2017-09-19T11:20:57.780Z,66.80
2017-09-19T11:23:27.177Z,66.70
2017-09-19T11:25:55.750Z,67.00
2017-09-19T11:28:23.895Z,67.30
2017-09-19T11:30:52.712Z,67.20
2017-09-19T11:33:22.163Z,67.40
2017-09-19T11:35:52.539Z,67.40
2017-09-19T11:38:21.138Z,67.10
2017-09-19T11:40:50.691Z,66.80
2017-09-19T11:43:18.838Z,67.70
2017-09-19T11:45:47.697Z,67.90
2017-09-19T11:48:16.250Z,67.90
2017-09-19T11:50:45.170Z,67.20
2017-09-19T11:53:15.609Z,67.20
2017-09-19T11:55:44.409Z,66.90
2017-09-19T11:58:12.405Z,66.50
2017-09-19T12:00:41.909Z,66.40
2017-09-19T12:03:12.089Z,67.10
2017-09-19T12:05:41.759Z,67.20
2017-09-19T12:08:09.904Z,67.30
2017-09-19T12:16:50.281Z,67.50
2017-09-19T12:19:19.380Z,68.50
2017-09-19T12:21:48.365Z,68.80
2017-09-19T12:24:18.890Z,68.80
2017-09-19T12:26:47.029Z,68.80
2017-09-19T12:29:15.319Z,68.70
2017-09-19T12:31:44.113Z,68.60
2017-09-19T12:34:13.159Z,68.80
2017-09-19T12:36:42.108Z,68.60
2017-09-19T12:39:11.398Z,68.40
2017-09-19T12:41:40.939Z,68.40
2017-09-19T12:44:09.866Z,68.70
2017-09-19T12:46:39.305Z,68.90
2017-09-19T12:49:10.159Z,68.80
2017-09-19T12:51:38.908Z,68.50
2017-09-19T13:03:52.535Z,68.70
2017-09-19T13:06:23.648Z,69.50
2017-09-19T13:08:52.608Z,69.20
2017-09-19T13:11:21.712Z,69.20
2017-09-19T13:13:50.435Z,69.90
2017-09-19T13:16:18.698Z,69.30
2017-09-19T13:18:47.414Z,69.30
2017-09-19T13:21:17.026Z,69.10
2017-09-19T13:23:45.997Z,68.80
2017-09-19T13:26:14.920Z,69.20
2017-09-19T13:28:43.194Z,69.10
2017-09-19T13:31:23.088Z,69.10
2017-09-19T13:33:53.366Z,68.90
2017-09-19T13:36:22.496Z,68.60
2017-09-19T13:38:52.143Z,68.50
2017-09-19T13:41:23.811Z,68.10
2017-09-19T13:43:54.325Z,68.00
2017-09-19T13:46:22.776Z,67.60
2017-09-19T13:48:51.283Z,68.00
2017-09-19T13:51:20.835Z,68.60
2017-09-19T13:53:50.064Z,67.90
2017-09-19T13:56:19.070Z,67.80
2017-09-19T13:58:50.799Z,68.60
2017-09-19T14:01:22.326Z,69.00
2017-09-19T14:03:52.581Z,69.00
2017-09-19T14:06:23.274Z,69.20
2017-09-19T14:08:52.740Z,69.40
2017-09-19T14:11:21.575Z,69.40
2017-09-19T14:13:50.164Z,69.60
2017-09-19T14:16:19.561Z,69.30
2017-09-19T14:18:49.338Z,69.30
2017-09-19T14:21:19.591Z,68.80
2017-09-19T14:23:50.162Z,68.70
2017-09-19T14:26:18.215Z,68.80
2017-09-19T14:28:46.231Z,69.30
2017-09-19T14:31:17.155Z,69.00
2017-09-19T14:33:46.587Z,68.90
2017-09-19T14:36:14.141Z,69.00
2017-09-19T14:38:42.104Z,68.40
2017-09-19T14:41:11.541Z,67.40
2017-09-19T14:43:40.591Z,67.40
2017-09-19T14:46:10.578Z,66.70
2017-09-19T14:48:38.970Z,66.60
2017-09-19T14:51:07.871Z,65.10
2017-09-19T14:53:37.524Z,64.90
2017-09-19T14:56:07.037Z,65.60
2017-09-19T14:58:35.823Z,65.70
2017-09-19T15:01:07.024Z,65.30
2017-09-19T15:03:44.105Z,65.50
2017-09-19T15:06:15.777Z,65.70
2017-09-19T15:08:45.552Z,66.10
2017-09-19T15:11:15.411Z,65.30
2017-09-19T15:13:54.765Z,65.50
2017-09-19T15:16:25.619Z,65.20
2017-09-19T15:18:54.970Z,65.50
2017-09-19T15:21:29.658Z,66.10
2017-09-19T15:24:00.590Z,66.00
2017-09-19T15:26:33.092Z,66.00
2017-09-19T15:29:04.232Z,66.20
2017-09-19T15:31:33.178Z,66.00
2017-09-19T15:34:06.464Z,66.00
2017-09-19T15:36:36.157Z,66.10
2017-09-19T15:42:00.940Z,66.50
2017-09-19T15:44:29.978Z,66.70
2017-09-19T15:46:59.302Z,66.80
2017-09-19T15:49:31.217Z,66.90
2017-09-19T15:52:00.366Z,66.80
2017-09-19T15:54:29.114Z,66.60
2017-09-19T15:56:59.577Z,66.10
2017-09-19T15:59:28.877Z,66.10
2017-09-19T16:01:57.911Z,65.30
2017-09-19T16:04:26.264Z,65.70
2017-09-19T16:06:54.518Z,66.10
2017-09-19T16:09:22.701Z,65.70
2017-09-19T16:11:50.227Z,65.20
2017-09-19T16:14:20.703Z,64.70
2017-09-19T16:16:50.291Z,64.60
2017-09-19T16:19:19.223Z,64.80
2017-09-19T16:21:48.774Z,64.60
2017-09-19T16:24:18.157Z,64.50
2017-09-19T16:26:49.707Z,64.50
2017-09-19T16:29:19.285Z,64.20
2017-09-19T16:31:50.027Z,64.20
2017-09-19T16:34:18.649Z,64.50
2017-09-19T16:36:48.734Z,64.20
2017-09-19T16:39:17.752Z,64.70
2017-09-19T16:41:47.749Z,65.00
2017-09-19T16:44:18.089Z,65.00
2017-09-19T16:46:48.894Z,65.00
2017-09-19T16:49:18.184Z,65.50
2017-09-19T16:51:46.543Z,66.10
2017-09-19T16:54:17.075Z,66.00
2017-09-19T16:56:45.801Z,66.10
2017-09-19T16:59:14.768Z,66.30
2017-09-19T17:01:46.419Z,66.50
2017-09-19T17:04:18.232Z,66.70
2017-09-19T17:06:48.699Z,66.60
2017-09-19T17:09:22.575Z,66.90
2017-09-19T17:11:56.763Z,67.20
2017-09-19T17:14:26.481Z,67.20
2017-09-19T17:16:56.948Z,68.30
2017-09-19T17:19:32.336Z,68.20
2017-09-19T17:22:09.500Z,68.40
2017-09-19T17:24:40.507Z,68.60
2017-09-19T17:27:11.997Z,68.70
2017-09-19T17:29:40.549Z,68.60
2017-09-19T17:32:09.663Z,68.80
2017-09-19T17:34:38.784Z,69.00
2017-09-19T17:37:09.114Z,69.30
2017-09-19T17:39:39.412Z,69.10
2017-09-19T17:42:10.894Z,69.00
2017-09-19T17:47:28.950Z,68.90
2017-09-19T17:49:58.135Z,69.50
2017-09-19T17:52:27.305Z,69.60
2017-09-19T17:54:56.157Z,70.00
2017-09-19T17:57:26.667Z,70.50
2017-09-19T17:59:55.762Z,70.40
2017-09-19T18:05:00.780Z,70.60
2017-09-19T18:07:30.745Z,70.70
2017-09-19T18:10:01.248Z,70.70
2017-09-19T18:12:32.529Z,70.70
2017-09-19T18:15:02.140Z,71.10
2017-09-19T18:17:31.238Z,71.30
2017-09-19T18:20:02.451Z,71.40
2017-09-19T18:22:32.442Z,71.40
2017-09-19T18:25:02.092Z,71.20
2017-09-19T18:27:31.422Z,71.20
2017-09-19T18:30:00.562Z,71.50
2017-09-19T18:32:32.950Z,71.10
2017-09-19T18:35:02.803Z,71.10
2017-09-19T18:37:32.274Z,71.20
2017-09-19T18:40:01.241Z,70.90
2017-09-19T18:42:29.344Z,71.10
2017-09-19T18:44:58.175Z,71.30
2017-09-19T18:47:30.326Z,71.20
2017-09-19T18:49:59.040Z,71.20
2017-09-19T18:52:27.166Z,71.10
2017-09-19T18:54:55.791Z,71.40
2017-09-19T18:57:26.440Z,71.40
2017-09-19T18:59:55.693Z,71.30
2017-09-19T19:02:25.395Z,71.90
2017-09-19T19:04:54.783Z,72.00
2017-09-19T19:07:22.944Z,72.00
2017-09-19T19:09:51.624Z,72.40
2017-09-19T19:12:21.318Z,72.80
2017-09-19T19:14:52.052Z,72.60
2017-09-19T19:17:22.029Z,72.80
2017-09-19T19:19:52.101Z,72.80
2017-09-19T19:22:22.202Z,73.10
2017-09-19T19:24:52.157Z,73.10
2017-09-19T19:27:20.472Z,73.30
2017-09-19T19:29:49.616Z,72.90
2017-09-19T19:32:20.328Z,72.90
2017-09-19T19:34:49.828Z,72.80
2017-09-19T19:37:18.670Z,72.50
2017-09-19T19:39:47.025Z,72.40
2017-09-19T19:42:15.077Z,72.40
2017-09-19T19:44:44.524Z,72.70
2017-09-19T19:47:13.797Z,72.20
2017-09-19T19:49:41.855Z,72.20
2017-09-19T19:52:11.826Z,72.20
2017-09-19T19:54:41.748Z,72.00
2017-09-19T19:57:10.520Z,71.80
2017-09-19T19:59:38.764Z,72.10
2017-09-19T20:02:09.225Z,72.00
2017-09-19T20:04:39.238Z,72.00
2017-09-19T20:07:08.574Z,71.90
2017-09-19T20:09:38.788Z,71.80
2017-09-19T20:12:07.580Z,71.70
2017-09-19T20:14:35.787Z,71.40
2017-09-19T20:17:04.417Z,71.30
2017-09-19T20:19:33.782Z,71.40
2017-09-19T20:22:03.950Z,71.30
2017-09-19T20:24:36.612Z,71.20
2017-09-19T20:27:07.378Z,72.00
2017-09-19T20:29:37.966Z,71.40
2017-09-19T20:32:07.081Z,71.40
2017-09-19T20:34:36.546Z,71.70
2017-09-19T20:37:06.105Z,71.70
2017-09-19T20:39:39.212Z,71.90
2017-09-19T20:42:07.249Z,72.10
2017-09-19T20:44:35.539Z,72.30
2017-09-19T20:47:03.737Z,72.30
2017-09-19T20:49:31.355Z,72.50
2017-09-19T20:52:00.717Z,72.50
2017-09-19T20:54:30.342Z,72.60
2017-09-19T20:56:59.038Z,72.80
2017-09-19T20:59:28.500Z,73.00
2017-09-19T21:01:56.707Z,73.10
2017-09-19T21:04:32.689Z,72.80
2017-09-19T21:07:07.481Z,72.10
2017-09-19T21:09:41.825Z,72.20
2017-09-19T21:12:15.523Z,72.20
2017-09-19T21:14:50.802Z,72.50
2017-09-19T21:17:26.079Z,72.90
2017-09-19T21:19:55.096Z,72.50
2017-09-19T21:22:23.697Z,72.50
2017-09-19T21:24:52.232Z,72.30
2017-09-19T21:27:22.105Z,72.10
2017-09-19T21:29:51.588Z,72.30
2017-09-19T21:32:21.283Z,72.30
2017-09-19T21:34:50.856Z,72.20
2017-09-19T21:37:19.737Z,72.10
2017-09-19T21:39:48.393Z,72.30
2017-09-19T21:42:17.487Z,72.30
2017-09-19T21:44:45.597Z,72.20
2017-09-19T21:47:14.546Z,72.20
2017-09-19T21:49:43.968Z,72.20
2017-09-19T21:55:13.074Z,72.50
2017-09-19T21:57:45.160Z,72.50
2017-09-19T22:00:13.653Z,72.70
2017-09-19T22:02:43.294Z,72.70
2017-09-19T22:05:12.301Z,72.70
2017-09-19T22:07:41.439Z,72.70
2017-09-19T22:10:11.695Z,72.40
2017-09-19T22:12:41.004Z,72.40
2017-09-19T22:15:09.977Z,72.30
2017-09-19T22:17:39.179Z,72.50
2017-09-19T22:20:10.186Z,72.70
2017-09-19T22:22:39.323Z,72.60
2017-09-19T22:25:08.970Z,73.10
2017-09-19T22:27:38.644Z,73.00
2017-09-19T22:30:08.496Z,73.50
2017-09-19T22:32:38.003Z,73.50
2017-09-19T22:35:06.055Z,73.70
2017-09-19T22:37:34.778Z,73.80
2017-09-19T22:40:05.276Z,73.40
2017-09-19T22:42:35.062Z,73.50
2017-09-19T22:45:06.506Z,73.50
2017-09-19T22:47:34.210Z,73.70
2017-09-19T22:50:02.345Z,73.70
2017-09-19T22:52:31.737Z,73.30
2017-09-19T22:55:00.612Z,73.00
2017-09-19T22:57:28.124Z,73.30
2017-09-19T22:59:56.724Z,73.00
2017-09-19T23:02:26.624Z,73.10
2017-09-19T23:04:56.587Z,73.40
2017-09-19T23:07:26.654Z,73.20
2017-09-19T23:09:56.033Z,73.40
2017-09-19T23:12:24.187Z,73.30
2017-09-19T23:14:52.866Z,73.40
2017-09-19T23:17:23.084Z,73.50
2017-09-19T23:19:53.395Z,73.30
2017-09-19T23:22:22.369Z,73.40
2017-09-19T23:24:53.378Z,73.40
2017-09-19T23:27:22.482Z,73.40
2017-09-19T23:29:54.282Z,73.30
2017-09-19T23:32:22.957Z,73.60
2017-09-19T23:34:51.068Z,73.50
2017-09-19T23:37:19.222Z,73.80
2017-09-19T23:39:47.538Z,73.60
2017-09-19T23:42:16.939Z,73.60
2017-09-19T23:44:46.370Z,74.30
2017-09-19T23:47:16.685Z,73.50
2017-09-19T23:49:45.953Z,73.90
2017-09-19T23:52:14.882Z,73.90
2017-09-19T23:54:43.200Z,73.80
2017-09-19T23:57:13.152Z,73.80
2017-09-19T23:59:41.968Z,73.80
